createdAt,value
2022-07-27T00:01:15.567Z,17.30
2022-07-27T00:03:45.946Z,8.70
2022-07-27T00:06:14.190Z,7.20
2022-07-27T00:08:42.225Z,6.13
2022-07-27T00:11:11.596Z,5.47
2022-07-27T00:13:41.228Z,6.07
2022-07-27T00:16:09.437Z,5.33
2022-07-27T00:18:37.432Z,5.60
2022-07-27T00:21:05.358Z,6.20
2022-07-27T00:23:34.107Z,6.10
2022-07-27T00:26:02.059Z,4.97
2022-07-27T00:28:30.084Z,5.60
2022-07-27T00:30:59.509Z,4.77
2022-07-27T00:33:27.511Z,6.17
2022-07-27T00:35:55.536Z,6.20
2022-07-27T00:38:23.570Z,6.33
2022-07-27T00:40:51.606Z,6.30
2022-07-27T00:43:19.550Z,5.97
2022-07-27T00:45:48.657Z,6.17
2022-07-27T00:48:17.935Z,5.87
2022-07-27T00:50:48.098Z,6.40
2022-07-27T00:53:16.824Z,6.10
2022-07-27T00:55:45.891Z,6.23
2022-07-27T00:58:14.185Z,6.20
2022-07-27T01:00:42.161Z,5.90
2022-07-27T01:03:10.291Z,6.40
2022-07-27T01:05:42.539Z,6.40
2022-07-27T01:08:13.940Z,6.30
2022-07-27T01:10:42.587Z,6.77
2022-07-27T01:13:12.522Z,6.10
2022-07-27T01:15:43.114Z,6.60
2022-07-27T01:18:26.941Z,6.70
2022-07-27T01:20:57.015Z,6.73
2022-07-27T01:23:27.083Z,6.27
2022-07-27T01:25:55.407Z,6.30
2022-07-27T01:28:23.288Z,6.60
2022-07-27T01:30:51.699Z,6.40
2022-07-27T01:33:25.704Z,6.50
2022-07-27T01:35:55.542Z,6.80
2022-07-27T01:38:23.785Z,6.67
2022-07-27T01:40:54.732Z,5.80
2022-07-27T01:43:23.404Z,6.03
2022-07-27T01:45:51.599Z,6.30
2022-07-27T01:48:20.404Z,6.00
2022-07-27T01:50:51.213Z,6.27
2022-07-27T01:53:19.372Z,7.13
2022-07-27T01:55:47.360Z,6.73
2022-07-27T01:58:16.818Z,6.60
2022-07-27T02:00:44.765Z,6.57
2022-07-27T02:03:12.810Z,6.57
2022-07-27T02:05:40.933Z,6.80
2022-07-27T02:08:09.672Z,7.13
2022-07-27T02:10:58.589Z,6.77
2022-07-27T02:13:27.051Z,6.47
2022-07-27T02:15:55.174Z,6.70
2022-07-27T02:18:33.182Z,7.27
2022-07-27T02:21:04.535Z,7.03
2022-07-27T02:23:32.542Z,6.87
2022-07-27T02:26:01.200Z,6.83
2022-07-27T02:28:30.499Z,7.30
2022-07-27T02:30:58.469Z,6.93
2022-07-27T02:33:26.357Z,7.87
2022-07-27T02:35:54.514Z,7.30
2022-07-27T02:38:22.469Z,6.80
2022-07-27T02:40:50.379Z,6.23
2022-07-27T02:43:18.377Z,7.20
2022-07-27T02:45:48.452Z,7.83
2022-07-27T02:48:16.540Z,7.00
2022-07-27T02:50:44.605Z,6.80
2022-07-27T02:53:12.570Z,7.00
2022-07-27T02:55:40.572Z,4.80
2022-07-27T02:58:08.534Z,6.20
2022-07-27T03:00:36.437Z,6.57
2022-07-27T03:03:05.826Z,6.43
2022-07-27T03:05:33.690Z,6.30
2022-07-27T03:08:01.891Z,6.17
2022-07-27T03:10:29.779Z,7.03
2022-07-27T03:12:57.785Z,6.23
2022-07-27T03:15:26.111Z,6.87
2022-07-27T03:17:54.186Z,6.87
2022-07-27T03:20:23.551Z,7.27
2022-07-27T03:22:51.455Z,6.87
2022-07-27T03:25:19.332Z,6.33
2022-07-27T03:27:47.428Z,6.67
2022-07-27T03:30:15.680Z,6.30
2022-07-27T03:32:43.531Z,6.47
2022-07-27T03:35:11.570Z,6.60
2022-07-27T03:37:41.010Z,7.50
2022-07-27T03:40:10.783Z,7.37
2022-07-27T03:42:40.024Z,6.10
2022-07-27T03:45:09.576Z,6.77
2022-07-27T03:47:37.645Z,7.13
2022-07-27T03:50:06.358Z,6.73
2022-07-27T03:52:34.261Z,6.13
2022-07-27T03:55:03.822Z,6.37
2022-07-27T03:57:31.809Z,6.40
2022-07-27T03:59:59.893Z,6.60
2022-07-27T04:02:27.869Z,5.90
2022-07-27T04:04:55.761Z,6.50
2022-07-27T04:07:23.637Z,6.83
2022-07-27T04:09:51.626Z,5.70
2022-07-27T04:12:20.862Z,6.20
2022-07-27T04:14:49.231Z,6.80
2022-07-27T04:17:53.489Z,6.30
2022-07-27T04:20:06.542Z,8.40
2022-07-27T04:22:34.490Z,7.23
2022-07-27T04:25:02.429Z,6.70
2022-07-27T04:27:31.672Z,6.93
2022-07-27T04:29:59.797Z,6.67
2022-07-27T04:32:27.725Z,7.40
2022-07-27T04:34:55.800Z,5.73
2022-07-27T04:37:23.692Z,6.60
2022-07-27T04:39:51.658Z,6.70
2022-07-27T04:42:19.568Z,5.60
2022-07-27T04:44:48.841Z,6.07
2022-07-27T04:47:16.741Z,5.77
2022-07-27T04:49:44.646Z,5.10
2022-07-27T04:52:15.029Z,6.57
2022-07-27T04:54:43.103Z,5.97
2022-07-27T04:57:11.119Z,6.13
2022-07-27T04:59:39.098Z,7.27
2022-07-27T05:02:08.510Z,6.70
2022-07-27T05:04:36.515Z,6.53
2022-07-27T05:07:04.449Z,6.70
2022-07-27T05:09:32.373Z,6.53
2022-07-27T05:12:00.248Z,6.37
2022-07-27T05:14:28.144Z,5.90
2022-07-27T05:16:56.106Z,5.90
2022-07-27T05:19:40.395Z,6.10
2022-07-27T05:22:08.984Z,5.80
2022-07-27T05:24:37.108Z,6.00
2022-07-27T05:27:05.989Z,6.37
2022-07-27T05:29:33.930Z,6.40
2022-07-27T05:32:01.927Z,6.03
2022-07-27T05:34:31.896Z,7.00
2022-07-27T05:36:59.867Z,6.10
2022-07-27T05:39:27.829Z,6.30
2022-07-27T05:41:55.700Z,6.27
2022-07-27T05:44:24.074Z,5.90
2022-07-27T05:46:52.040Z,5.83
2022-07-27T05:49:20.079Z,6.27
2022-07-27T05:51:49.918Z,6.60
2022-07-27T05:54:18.510Z,6.33
2022-07-27T05:56:46.670Z,6.30
2022-07-27T05:59:14.928Z,6.57
2022-07-27T06:01:43.176Z,6.50
2022-07-27T06:04:14.423Z,6.97
2022-07-27T06:07:00.359Z,8.70
2022-07-27T06:09:29.805Z,7.10
2022-07-27T06:11:57.829Z,7.40
2022-07-27T06:14:25.784Z,7.00
2022-07-27T06:16:54.670Z,6.70
2022-07-27T06:19:22.669Z,7.80
2022-07-27T06:21:53.769Z,11.17
2022-07-27T06:24:22.040Z,8.10
2022-07-27T06:26:51.602Z,8.00
2022-07-27T06:29:19.476Z,7.50
2022-07-27T06:31:47.462Z,6.50
2022-07-27T06:34:15.786Z,6.83
2022-07-27T06:36:45.359Z,6.90
2022-07-27T06:39:14.027Z,7.90
2022-07-27T06:41:42.208Z,7.13
2022-07-27T06:44:16.167Z,8.90
2022-07-27T06:46:44.443Z,8.40
2022-07-27T06:49:12.652Z,8.43
2022-07-27T06:51:40.904Z,8.47
2022-07-27T06:54:08.824Z,7.80
2022-07-27T06:56:36.918Z,8.07
2022-07-27T06:59:04.927Z,7.30
2022-07-27T07:01:34.333Z,8.03
2022-07-27T07:04:02.735Z,7.30
2022-07-27T07:06:30.757Z,8.07
2022-07-27T07:08:58.688Z,7.27
2022-07-27T07:11:26.633Z,7.37
2022-07-27T07:13:54.633Z,7.77
2022-07-27T07:16:22.586Z,8.30
2022-07-27T07:18:52.652Z,8.87
2022-07-27T07:21:20.953Z,8.00
2022-07-27T07:23:49.006Z,7.37
2022-07-27T07:26:17.123Z,7.37
2022-07-27T07:28:45.110Z,7.20
2022-07-27T07:31:13.081Z,9.40
2022-07-27T07:33:41.030Z,7.97
2022-07-27T07:36:14.109Z,8.90
2022-07-27T07:38:43.112Z,9.83
2022-07-27T07:41:11.066Z,8.57
2022-07-27T07:43:39.819Z,8.03
2022-07-27T07:46:08.696Z,8.27
2022-07-27T07:48:39.001Z,7.63
2022-07-27T07:51:06.978Z,7.07
2022-07-27T07:53:41.137Z,7.93
2022-07-27T07:56:09.458Z,6.90
2022-07-27T07:58:37.409Z,18.53
2022-07-27T08:01:05.439Z,10.40
2022-07-27T08:03:33.424Z,7.83
2022-07-27T08:06:01.742Z,6.93
2022-07-27T08:08:31.239Z,8.00
2022-07-27T08:11:00.609Z,8.17
2022-07-27T08:13:28.559Z,7.63
2022-07-27T08:15:56.827Z,8.03
2022-07-27T08:18:24.768Z,7.93
2022-07-27T08:20:52.725Z,9.60
2022-07-27T08:23:20.718Z,10.70
2022-07-27T08:25:48.665Z,9.50
2022-07-27T08:28:17.921Z,8.90
2022-07-27T08:30:46.505Z,6.97
2022-07-27T08:33:14.475Z,8.00
2022-07-27T08:35:42.564Z,7.30
2022-07-27T08:38:11.042Z,9.63
2022-07-27T08:40:43.357Z,7.43
2022-07-27T08:43:20.202Z,9.33
2022-07-27T08:45:56.278Z,7.30
2022-07-27T08:48:25.791Z,8.37
2022-07-27T08:50:54.108Z,7.23
2022-07-27T08:53:23.314Z,7.17
2022-07-27T08:55:51.402Z,6.97
2022-07-27T08:58:19.522Z,7.00
2022-07-27T09:00:49.762Z,7.60
2022-07-27T09:03:21.712Z,7.40
2022-07-27T09:05:52.462Z,10.00
2022-07-27T09:08:24.671Z,6.90
2022-07-27T09:10:55.543Z,7.27
2022-07-27T09:13:25.927Z,7.90
2022-07-27T09:16:17.112Z,8.43
2022-07-27T09:18:45.419Z,6.73
2022-07-27T09:21:16.919Z,6.30
2022-07-27T09:23:48.088Z,7.03
2022-07-27T09:26:35.914Z,6.33
2022-07-27T09:29:06.709Z,6.93
2022-07-27T09:31:41.759Z,6.80
2022-07-27T09:34:11.788Z,6.40
2022-07-27T09:36:52.372Z,7.30
2022-07-27T09:39:21.378Z,6.27
2022-07-27T09:41:50.276Z,6.40
2022-07-27T09:44:41.996Z,5.87
2022-07-27T09:47:26.381Z,5.57
2022-07-27T09:49:57.900Z,5.33
2022-07-27T09:52:28.009Z,5.47
2022-07-27T09:55:02.752Z,5.53
2022-07-27T09:57:30.986Z,5.53
2022-07-27T10:00:10.199Z,5.70
2022-07-27T10:02:38.730Z,6.03
2022-07-27T10:05:09.159Z,5.93
2022-07-27T10:07:37.424Z,5.57
2022-07-27T10:10:06.620Z,6.10
2022-07-27T10:12:34.606Z,5.80
2022-07-27T10:15:02.600Z,6.20
2022-07-27T10:17:31.294Z,6.30
2022-07-27T10:19:59.543Z,5.40
2022-07-27T10:22:51.485Z,6.43
2022-07-27T10:25:19.888Z,5.97
2022-07-27T10:27:49.389Z,5.90
2022-07-27T10:30:27.585Z,6.93
2022-07-27T10:33:00.169Z,6.47
2022-07-27T10:35:36.451Z,6.83
2022-07-27T10:38:11.639Z,6.20
2022-07-27T10:40:40.185Z,8.50
2022-07-27T10:43:11.628Z,7.77
2022-07-27T10:45:59.978Z,6.80
2022-07-27T10:48:36.229Z,7.27
2022-07-27T10:51:05.190Z,7.30
2022-07-27T10:54:09.313Z,5.87
2022-07-27T10:56:45.481Z,6.23
2022-07-27T10:59:13.458Z,6.30
2022-07-27T11:01:56.665Z,5.70
2022-07-27T11:04:25.857Z,6.63
2022-07-27T11:07:23.678Z,6.77
2022-07-27T11:10:04.731Z,5.30
2022-07-27T11:12:33.237Z,5.63
2022-07-27T11:15:02.734Z,4.87
2022-07-27T11:20:23.961Z,5.63
2022-07-27T11:25:41.921Z,5.60
2022-07-27T11:28:09.836Z,5.77
2022-07-27T11:30:37.846Z,6.33
2022-07-27T11:33:07.247Z,5.33
2022-07-27T11:35:35.555Z,6.10
2022-07-27T11:38:07.630Z,5.73
2022-07-27T11:40:56.764Z,6.60
2022-07-27T11:43:36.938Z,6.17
2022-07-27T11:46:13.903Z,5.90
2022-07-27T11:49:08.402Z,6.13
2022-07-27T11:51:38.758Z,5.63
2022-07-27T11:54:08.673Z,5.73
2022-07-27T11:56:39.942Z,4.93
2022-07-27T11:59:13.704Z,5.50
2022-07-27T12:01:45.121Z,5.90
2022-07-27T12:04:19.790Z,5.27
2022-07-27T12:06:55.240Z,5.20
2022-07-27T12:09:23.893Z,5.90
2022-07-27T12:11:57.187Z,5.67
2022-07-27T12:14:30.378Z,7.03
2022-07-27T12:17:12.455Z,6.80
2022-07-27T12:19:40.937Z,6.67
2022-07-27T12:22:09.708Z,6.03
2022-07-27T12:24:39.799Z,5.57
2022-07-27T12:27:14.342Z,5.30
2022-07-27T12:30:03.509Z,5.30
2022-07-27T12:32:33.694Z,5.60
2022-07-27T12:35:02.321Z,4.87
2022-07-27T12:37:31.804Z,4.60
2022-07-27T12:40:01.267Z,4.27
2022-07-27T12:42:37.650Z,4.97
2022-07-27T12:45:13.512Z,5.17
2022-07-27T12:47:41.537Z,4.37
2022-07-27T12:50:11.914Z,4.33
2022-07-27T12:52:44.001Z,4.63
2022-07-27T12:55:15.873Z,4.77
2022-07-27T12:57:55.698Z,4.40
2022-07-27T13:00:44.819Z,4.20
2022-07-27T13:03:12.840Z,3.97
2022-07-27T13:05:41.641Z,4.17
2022-07-27T13:08:10.626Z,4.77
2022-07-27T13:10:39.590Z,4.27
2022-07-27T13:14:04.151Z,6.10
2022-07-27T13:16:33.804Z,4.50
2022-07-27T13:19:01.872Z,4.60
2022-07-27T13:21:29.905Z,5.00
2022-07-27T13:23:58.380Z,5.43
2022-07-27T13:26:27.615Z,5.07
2022-07-27T13:28:55.876Z,5.30
2022-07-27T13:31:24.180Z,4.70
2022-07-27T13:33:53.621Z,4.83
2022-07-27T13:36:22.414Z,5.43
2022-07-27T13:38:50.354Z,5.00
2022-07-27T13:41:18.406Z,5.87
2022-07-27T13:43:46.419Z,6.30
2022-07-27T13:46:14.527Z,5.37
2022-07-27T13:48:42.521Z,5.73
2022-07-27T13:51:11.771Z,6.70
2022-07-27T13:53:39.656Z,5.60
2022-07-27T13:56:07.636Z,6.13
2022-07-27T13:58:35.732Z,5.70
2022-07-27T14:01:07.507Z,5.80
2022-07-27T14:03:35.974Z,6.17
2022-07-27T14:06:04.194Z,7.00
2022-07-27T14:08:35.854Z,6.00
2022-07-27T14:11:03.930Z,6.00
2022-07-27T14:13:32.769Z,5.20
2022-07-27T14:16:01.598Z,5.57
2022-07-27T14:18:32.052Z,6.43
2022-07-27T14:21:01.758Z,6.30
2022-07-27T14:23:30.335Z,6.57
2022-07-27T14:26:00.707Z,5.60
2022-07-27T14:28:29.860Z,7.77
2022-07-27T14:30:58.704Z,5.60
2022-07-27T14:33:33.196Z,5.07
2022-07-27T14:36:05.474Z,4.93
2022-07-27T14:38:33.440Z,4.00
2022-07-27T14:41:02.819Z,4.20
2022-07-27T14:43:31.572Z,3.80
2022-07-27T14:46:00.239Z,4.47
2022-07-27T14:48:55.556Z,3.57
2022-07-27T14:51:17.002Z,4.10
2022-07-27T14:53:45.064Z,3.97
2022-07-27T14:56:14.748Z,3.70
2022-07-27T14:58:43.015Z,4.37
2022-07-27T15:01:10.973Z,4.73
2022-07-27T15:03:38.953Z,4.50
2022-07-27T15:06:07.205Z,4.33
2022-07-27T15:08:35.154Z,5.10
2022-07-27T15:11:03.086Z,5.50
2022-07-27T15:13:32.452Z,5.70
2022-07-27T15:16:00.495Z,6.10
2022-07-27T15:18:28.613Z,5.50
2022-07-27T15:20:56.817Z,5.70
2022-07-27T15:23:24.689Z,5.70
2022-07-27T15:25:52.714Z,5.73
2022-07-27T15:28:20.794Z,6.57
2022-07-27T15:30:50.120Z,8.30
2022-07-27T15:33:18.091Z,6.00
2022-07-27T15:35:46.034Z,6.53
2022-07-27T15:38:14.041Z,5.30
2022-07-27T15:40:42.507Z,5.97
2022-07-27T15:43:14.001Z,6.10
2022-07-27T15:45:43.947Z,6.47
2022-07-27T15:48:13.674Z,6.97
2022-07-27T15:50:43.466Z,11.70
2022-07-27T15:53:12.083Z,6.43
2022-07-27T15:55:40.121Z,6.87
2022-07-27T15:58:08.645Z,6.73
2022-07-27T16:00:41.266Z,6.13
2022-07-27T16:03:10.111Z,7.27
2022-07-27T16:05:40.738Z,6.90
2022-07-27T16:08:09.918Z,7.20
2022-07-27T16:10:38.778Z,7.37
2022-07-27T16:13:07.203Z,6.13
2022-07-27T16:15:50.001Z,6.57
2022-07-27T16:18:18.023Z,6.90
2022-07-27T16:20:47.390Z,7.27
2022-07-27T16:23:21.189Z,6.50
2022-07-27T16:26:04.152Z,6.70
2022-07-27T16:28:33.876Z,6.20
2022-07-27T16:31:01.921Z,6.57
2022-07-27T16:33:30.291Z,6.87
2022-07-27T16:36:00.072Z,6.50
2022-07-27T16:38:28.441Z,6.60
2022-07-27T16:40:56.390Z,7.23
2022-07-27T16:43:37.497Z,6.80
2022-07-27T16:46:10.047Z,7.30
2022-07-27T16:48:42.693Z,6.80
2022-07-27T16:51:14.403Z,7.40
2022-07-27T16:53:43.794Z,7.63
2022-07-27T16:56:12.251Z,8.10
2022-07-27T16:58:40.572Z,8.13
2022-07-27T17:01:09.314Z,7.37
2022-07-27T17:03:37.761Z,7.47
2022-07-27T17:06:08.866Z,7.70
2022-07-27T17:08:38.195Z,7.37
2022-07-27T17:11:06.898Z,8.17
2022-07-27T17:13:37.089Z,8.07
2022-07-27T17:16:06.524Z,8.63
2022-07-27T17:18:40.235Z,8.20
2022-07-27T17:21:12.781Z,8.13
2022-07-27T17:23:44.037Z,7.97
2022-07-27T17:26:15.010Z,8.40
2022-07-27T17:28:43.333Z,8.10
2022-07-27T17:31:13.224Z,7.97
2022-07-27T17:33:42.246Z,8.30
2022-07-27T17:36:15.169Z,7.80
2022-07-27T17:38:45.226Z,7.97
2022-07-27T17:41:13.537Z,8.07
2022-07-27T17:43:42.265Z,7.97
2022-07-27T17:46:12.654Z,7.80
2022-07-27T17:48:41.531Z,8.30
2022-07-27T17:51:10.577Z,8.60
2022-07-27T17:53:38.913Z,8.40
2022-07-27T17:56:08.536Z,9.43
2022-07-27T17:58:36.682Z,9.83
2022-07-27T18:01:04.871Z,9.57
2022-07-27T18:03:33.027Z,9.87
2022-07-27T18:06:01.540Z,10.20
2022-07-27T18:08:29.657Z,9.63
2022-07-27T18:10:57.692Z,10.20
2022-07-27T18:13:39.047Z,10.73
2022-07-27T18:16:09.292Z,11.70
2022-07-27T18:18:37.855Z,11.03
2022-07-27T18:21:06.711Z,10.70
2022-07-27T18:23:34.881Z,12.13
2022-07-27T18:26:02.963Z,10.80
2022-07-27T18:28:39.194Z,10.90
2022-07-27T18:31:09.518Z,10.83
2022-07-27T18:33:37.871Z,11.70
2022-07-27T18:36:06.475Z,10.40
2022-07-27T18:38:34.472Z,11.43
2022-07-27T18:41:02.914Z,11.80
2022-07-27T18:43:32.250Z,11.73
2022-07-27T18:46:00.480Z,9.67
2022-07-27T18:48:28.828Z,9.93
2022-07-27T18:50:57.233Z,9.77
2022-07-27T18:53:25.156Z,11.13
2022-07-27T18:55:56.452Z,9.07
2022-07-27T18:58:25.525Z,9.20
2022-07-27T19:00:55.594Z,10.03
2022-07-27T19:03:24.720Z,12.60
2022-07-27T19:05:56.201Z,12.47
2022-07-27T19:08:24.276Z,11.07
2022-07-27T19:10:52.493Z,9.13
2022-07-27T19:13:21.082Z,8.97
2022-07-27T19:15:49.166Z,9.00
2022-07-27T19:18:18.524Z,8.57
2022-07-27T19:20:46.512Z,10.27
2022-07-27T19:23:14.438Z,10.27
2022-07-27T19:25:42.364Z,11.13
2022-07-27T19:28:10.322Z,9.97
2022-07-27T19:30:39.223Z,9.03
2022-07-27T19:33:07.146Z,10.37
2022-07-27T19:35:36.478Z,8.27
2022-07-27T19:38:04.677Z,8.50
2022-07-27T19:40:44.138Z,7.93
2022-07-27T19:43:13.817Z,7.67
2022-07-27T19:45:42.115Z,9.07
2022-07-27T19:48:10.521Z,7.90
2022-07-27T19:50:40.040Z,19.27
2022-07-27T19:53:08.245Z,11.50
2022-07-27T19:55:36.191Z,9.53
2022-07-27T19:58:04.217Z,7.83
2022-07-27T20:00:32.358Z,7.50
2022-07-27T20:03:00.348Z,7.70
2022-07-27T20:05:28.784Z,7.77
2022-07-27T20:07:58.056Z,11.10
2022-07-27T20:10:26.324Z,12.57
2022-07-27T20:12:54.458Z,14.80
2022-07-27T20:15:22.779Z,10.70
2022-07-27T20:17:51.052Z,7.97
2022-07-27T20:20:19.029Z,8.90
2022-07-27T20:22:47.195Z,8.20
2022-07-27T20:25:18.394Z,7.70
2022-07-27T20:27:47.075Z,8.37
2022-07-27T20:30:17.254Z,7.87
2022-07-27T20:32:45.397Z,7.80
2022-07-27T20:35:13.316Z,8.03
2022-07-27T20:37:41.395Z,8.13
2022-07-27T20:40:12.003Z,8.00
2022-07-27T20:42:41.660Z,8.10
2022-07-27T20:45:11.569Z,7.40
2022-07-27T20:47:39.756Z,8.03
2022-07-27T20:50:09.287Z,9.60
2022-07-27T20:52:37.320Z,10.70
2022-07-27T20:55:06.112Z,10.13
2022-07-27T20:57:34.058Z,8.83
2022-07-27T21:00:03.578Z,8.90
2022-07-27T21:02:31.797Z,8.30
2022-07-27T21:04:59.941Z,7.97
2022-07-27T21:07:28.168Z,9.57
2022-07-27T21:09:56.117Z,8.47
2022-07-27T21:12:24.088Z,7.93
2022-07-27T21:14:52.190Z,7.73
2022-07-27T21:17:21.506Z,8.40
2022-07-27T21:19:49.425Z,8.40
2022-07-27T21:22:17.392Z,9.17
2022-07-27T21:24:44.331Z,9.23
2022-07-27T21:27:14.442Z,8.23
2022-07-27T21:29:42.654Z,8.93
2022-07-27T21:32:10.615Z,9.37
2022-07-27T21:34:39.902Z,9.00
2022-07-27T21:37:07.814Z,8.77
2022-07-27T21:39:36.058Z,8.40
2022-07-27T21:42:04.186Z,9.10
2022-07-27T21:44:32.436Z,12.17
2022-07-27T21:47:00.664Z,10.00
2022-07-27T21:49:32.412Z,8.90
2022-07-27T21:52:04.237Z,8.77
2022-07-27T21:54:32.115Z,9.07
2022-07-27T21:57:00.025Z,9.60
2022-07-27T21:59:28.024Z,8.90
2022-07-27T22:01:55.986Z,9.30
2022-07-27T22:04:24.000Z,8.80
2022-07-27T22:06:51.977Z,8.90
2022-07-27T22:09:21.278Z,9.93
2022-07-27T22:11:49.156Z,8.47
2022-07-27T22:14:17.795Z,9.07
2022-07-27T22:16:46.134Z,8.80
2022-07-27T22:19:14.135Z,9.97
2022-07-27T22:21:42.060Z,8.47
2022-07-27T22:24:10.452Z,10.13
2022-07-27T22:26:39.988Z,9.50
2022-07-27T22:29:07.968Z,10.30
2022-07-27T22:31:35.944Z,9.93
2022-07-27T22:34:04.072Z,9.80
2022-07-27T22:36:32.478Z,9.10
2022-07-27T22:39:00.495Z,10.57
2022-07-27T22:41:28.533Z,10.23
2022-07-27T22:43:57.784Z,10.40
2022-07-27T22:46:26.083Z,9.57
2022-07-27T22:48:54.270Z,9.20
2022-07-27T22:51:22.582Z,8.93
2022-07-27T22:53:50.505Z,9.60
2022-07-27T22:56:18.746Z,8.30
2022-07-27T22:58:46.701Z,9.17
2022-07-27T23:01:47.412Z,9.43
2022-07-27T23:04:04.145Z,8.23
2022-07-27T23:06:32.064Z,9.40
2022-07-27T23:08:59.981Z,9.13
2022-07-27T23:11:28.001Z,9.80
2022-07-27T23:13:56.122Z,9.10
2022-07-27T23:16:25.444Z,10.00
2022-07-27T23:18:53.360Z,10.10
2022-07-27T23:21:22.061Z,9.70
2022-07-27T23:23:54.047Z,10.57
2022-07-27T23:26:22.946Z,10.27
2022-07-27T23:28:54.324Z,10.03
2022-07-27T23:31:22.437Z,10.33
2022-07-27T23:33:51.818Z,10.43
2022-07-27T23:36:19.789Z,11.17
2022-07-27T23:38:47.898Z,10.33
2022-07-27T23:41:16.745Z,10.27
2022-07-27T23:43:45.077Z,10.40
2022-07-27T23:46:13.404Z,10.13
2022-07-27T23:48:41.430Z,11.20
2022-07-27T23:51:16.595Z,7.93
2022-07-27T23:53:44.526Z,12.40
2022-07-27T23:56:12.444Z,10.53
2022-07-27T23:58:40.531Z,10.90
